Nikolski, Alaska
Current Conditions -  °F | °C
As of 12:56 AM on Saturday 22 Nov 2014 (Local Time) from PADU Reporting Station
Light Rain Light Rain  
Wind Chill: 34°   Ceiling: 2600
Heat Index: 42°   Visibility: 10mi
Dew Point: 34°   Wind: 16mph
Humidity: 73%   Direction: 290°WNW
Pressure: 28.81"   Gusts: 26mph
Location:  52.95°N, 168.85°W
Report Text: PADU 220956Z AUTO 29014G23KT 10SM -RA BKN026 OVC032 06/01 A2881 RMK AO2 SLP760 P0002 T00560011
Loading
Personal Weather Stations






























Interactive Weather Map New forecast layout! Learn more

10-Day Weather Forecast

Advertisements
Track Severe Weather on mobile